Terminal Aerodrome Forecast
Issued by NWS

Home | Current Version | Previous Version | Text Only | Print | Product List | Glossary On
Versions: 1 2 3 4 5 6 7 8 9 10 11 12 13 14 15 16 17 18
000
FTUS43 KMKX 282045 AAA
TAFENW
TAF AMD
KENW 282045Z 2821/2918 20015G25KT P6SM -TSRA FEW025 BKN050CB
      TEMPO 2821/2823 4SM -TSRA BKN035CB
     FM290000 20015G25KT P6SM VCSH BKN050
     FM290200 21012G22KT 6SM -SHRA VCTS BKN050CB WS020/22050KT
     FM290700 22013KT P6SM VCSH OVC060 WS020/23040KT
     FM291100 24013KT P6SM BKN040=

USA.gov is the U.S. government's official web portal to all federal, state and local government web resources and services.